sensor_id;sensor_type;location;lat;lon;timestamp;P1;durP1;ratioP1;P2;durP2;ratioP2
52074;SDS011;38075;53.172;5.446;2022-08-03T00:01:17;8.10;;;4.40;;
52074;SDS011;38075;53.172;5.446;2022-08-03T00:03:43;8.77;;;4.20;;
52074;SDS011;38075;53.172;5.446;2022-08-03T00:06:09;10.50;;;4.10;;
52074;SDS011;38075;53.172;5.446;2022-08-03T00:08:34;7.97;;;3.95;;
52074;SDS011;38075;53.172;5.446;2022-08-03T00:11:00;8.90;;;3.83;;
52074;SDS011;38075;53.172;5.446;2022-08-03T00:13:26;13.70;;;4.55;;
52074;SDS011;38075;53.172;5.446;2022-08-03T00:15:51;10.07;;;4.47;;
52074;SDS011;38075;53.172;5.446;2022-08-03T00:18:18;12.05;;;4.07;;
52074;SDS011;38075;53.172;5.446;2022-08-03T00:20:43;7.18;;;3.80;;
52074;SDS011;38075;53.172;5.446;2022-08-03T00:23:09;7.60;;;3.90;;
52074;SDS011;38075;53.172;5.446;2022-08-03T00:25:35;10.93;;;3.85;;
52074;SDS011;38075;53.172;5.446;2022-08-03T00:28:02;11.95;;;4.00;;
52074;SDS011;38075;53.172;5.446;2022-08-03T00:30:28;8.23;;;4.13;;
52074;SDS011;38075;53.172;5.446;2022-08-03T00:32:54;11.88;;;5.05;;
52074;SDS011;38075;53.172;5.446;2022-08-03T00:35:20;8.98;;;4.20;;
52074;SDS011;38075;53.172;5.446;2022-08-03T00:37:46;10.93;;;3.72;;
52074;SDS011;38075;53.172;5.446;2022-08-03T00:40:12;9.82;;;3.85;;
52074;SDS011;38075;53.172;5.446;2022-08-03T00:42:48;7.43;;;4.03;;
52074;SDS011;38075;53.172;5.446;2022-08-03T00:45:15;7.55;;;4.28;;
52074;SDS011;38075;53.172;5.446;2022-08-03T00:47:41;9.93;;;4.32;;
52074;SDS011;38075;53.172;5.446;2022-08-03T00:50:07;9.02;;;3.78;;
52074;SDS011;38075;53.172;5.446;2022-08-03T00:52:34;11.30;;;4.28;;
52074;SDS011;38075;53.172;5.446;2022-08-03T00:55:00;9.68;;;4.22;;
52074;SDS011;38075;53.172;5.446;2022-08-03T00:57:27;9.90;;;4.25;;
52074;SDS011;38075;53.172;5.446;2022-08-03T00:59:55;10.75;;;4.32;;
52074;SDS011;38075;53.172;5.446;2022-08-03T01:02:21;11.38;;;4.78;;
52074;SDS011;38075;53.172;5.446;2022-08-03T01:04:47;10.13;;;4.70;;
52074;SDS011;38075;53.172;5.446;2022-08-03T01:12:31;8.15;;;4.05;;
52074;SDS011;38075;53.172;5.446;2022-08-03T01:15:26;9.68;;;4.13;;
52074;SDS011;38075;53.172;5.446;2022-08-03T01:20:23;9.32;;;4.28;;
52074;SDS011;38075;53.172;5.446;2022-08-03T01:31:35;11.82;;;4.80;;
52074;SDS011;38075;53.172;5.446;2022-08-03T01:34:06;8.93;;;4.32;;
52074;SDS011;38075;53.172;5.446;2022-08-03T01:36:35;11.45;;;4.80;;
52074;SDS011;38075;53.172;5.446;2022-08-03T01:39:07;9.98;;;4.50;;
52074;SDS011;38075;53.172;5.446;2022-08-03T01:41:39;10.63;;;4.63;;
52074;SDS011;38075;53.172;5.446;2022-08-03T01:44:11;8.73;;;4.28;;
52074;SDS011;38075;53.172;5.446;2022-08-03T01:46:38;11.20;;;4.70;;
52074;SDS011;38075;53.172;5.446;2022-08-03T01:49:06;12.43;;;4.28;;
52074;SDS011;38075;53.172;5.446;2022-08-03T01:51:35;11.57;;;4.50;;
52074;SDS011;38075;53.172;5.446;2022-08-03T01:54:03;10.80;;;4.78;;
52074;SDS011;38075;53.172;5.446;2022-08-03T01:56:31;10.70;;;5.28;;
52074;SDS011;38075;53.172;5.446;2022-08-03T01:58:58;10.43;;;4.53;;
52074;SDS011;38075;53.172;5.446;2022-08-03T02:01:26;10.95;;;4.65;;
52074;SDS011;38075;53.172;5.446;2022-08-03T02:03:53;12.93;;;4.70;;
52074;SDS011;38075;53.172;5.446;2022-08-03T02:06:22;8.10;;;4.32;;
52074;SDS011;38075;53.172;5.446;2022-08-03T02:08:49;11.85;;;4.88;;
52074;SDS011;38075;53.172;5.446;2022-08-03T02:11:17;10.23;;;4.82;;
52074;SDS011;38075;53.172;5.446;2022-08-03T02:13:43;11.82;;;4.60;;
52074;SDS011;38075;53.172;5.446;2022-08-03T02:16:12;14.40;;;4.20;;
52074;SDS011;38075;53.172;5.446;2022-08-03T02:18:39;12.38;;;4.90;;
52074;SDS011;38075;53.172;5.446;2022-08-03T02:21:06;8.02;;;4.22;;
52074;SDS011;38075;53.172;5.446;2022-08-03T02:23:34;9.63;;;4.70;;
52074;SDS011;38075;53.172;5.446;2022-08-03T02:26:02;8.60;;;4.35;;
52074;SDS011;38075;53.172;5.446;2022-08-03T02:28:31;13.60;;;5.18;;
52074;SDS011;38075;53.172;5.446;2022-08-03T02:31:02;9.70;;;4.43;;
52074;SDS011;38075;53.172;5.446;2022-08-03T02:33:31;12.43;;;4.43;;
52074;SDS011;38075;53.172;5.446;2022-08-03T02:36:01;10.75;;;4.70;;
52074;SDS011;38075;53.172;5.446;2022-08-03T02:38:30;9.05;;;4.40;;
52074;SDS011;38075;53.172;5.446;2022-08-03T02:40:58;8.93;;;4.20;;
52074;SDS011;38075;53.172;5.446;2022-08-03T02:43:28;9.63;;;4.47;;
52074;SDS011;38075;53.172;5.446;2022-08-03T02:45:55;11.13;;;4.63;;
52074;SDS011;38075;53.172;5.446;2022-08-03T02:48:22;8.43;;;4.22;;
52074;SDS011;38075;53.172;5.446;2022-08-03T02:53:19;10.45;;;3.83;;
52074;SDS011;38075;53.172;5.446;2022-08-03T02:55:46;12.50;;;3.97;;
52074;SDS011;38075;53.172;5.446;2022-08-03T02:58:13;10.50;;;3.80;;
52074;SDS011;38075;53.172;5.446;2022-08-03T03:00:43;10.55;;;4.38;;
52074;SDS011;38075;53.172;5.446;2022-08-03T03:03:10;10.88;;;3.90;;
52074;SDS011;38075;53.172;5.446;2022-08-03T03:05:36;13.13;;;4.25;;
52074;SDS011;38075;53.172;5.446;2022-08-03T03:08:04;10.07;;;3.90;;
52074;SDS011;38075;53.172;5.446;2022-08-03T03:10:30;9.57;;;3.80;;
52074;SDS011;38075;53.172;5.446;2022-08-03T03:12:56;9.60;;;3.40;;
52074;SDS011;38075;53.172;5.446;2022-08-03T03:15:23;11.88;;;3.83;;
52074;SDS011;38075;53.172;5.446;2022-08-03T03:17:50;9.40;;;3.63;;
52074;SDS011;38075;53.172;5.446;2022-08-03T03:20:17;8.68;;;3.80;;
52074;SDS011;38075;53.172;5.446;2022-08-03T03:22:47;9.05;;;3.78;;
52074;SDS011;38075;53.172;5.446;2022-08-03T03:25:14;11.38;;;4.35;;
52074;SDS011;38075;53.172;5.446;2022-08-03T03:27:41;10.43;;;3.78;;
52074;SDS011;38075;53.172;5.446;2022-08-03T03:30:07;10.63;;;4.05;;
52074;SDS011;38075;53.172;5.446;2022-08-03T03:32:33;9.60;;;4.10;;
52074;SDS011;38075;53.172;5.446;2022-08-03T03:35:00;10.88;;;3.95;;
52074;SDS011;38075;53.172;5.446;2022-08-03T03:37:26;9.32;;;4.07;;
52074;SDS011;38075;53.172;5.446;2022-08-03T03:39:52;10.30;;;4.57;;
52074;SDS011;38075;53.172;5.446;2022-08-03T03:42:19;10.35;;;4.57;;
52074;SDS011;38075;53.172;5.446;2022-08-03T03:44:45;13.95;;;4.47;;
52074;SDS011;38075;53.172;5.446;2022-08-03T03:47:11;10.60;;;4.88;;
52074;SDS011;38075;53.172;5.446;2022-08-03T03:49:37;11.00;;;5.10;;
52074;SDS011;38075;53.172;5.446;2022-08-03T03:52:03;15.18;;;4.00;;
52074;SDS011;38075;53.172;5.446;2022-08-03T03:54:39;9.23;;;3.58;;
52074;SDS011;38075;53.172;5.446;2022-08-03T03:57:09;13.27;;;4.20;;
52074;SDS011;38075;53.172;5.446;2022-08-03T03:59:39;9.20;;;3.95;;
52074;SDS011;38075;53.172;5.446;2022-08-03T04:02:06;9.80;;;4.27;;
52074;SDS011;38075;53.172;5.446;2022-08-03T04:04:33;9.02;;;4.03;;
52074;SDS011;38075;53.172;5.446;2022-08-03T04:07:18;12.20;;;4.35;;
52074;SDS011;38075;53.172;5.446;2022-08-03T04:10:05;10.40;;;4.10;;
52074;SDS011;38075;53.172;5.446;2022-08-03T04:12:56;10.95;;;4.05;;
52074;SDS011;38075;53.172;5.446;2022-08-03T04:15:24;11.07;;;4.15;;
52074;SDS011;38075;53.172;5.446;2022-08-03T04:17:53;11.88;;;4.60;;
52074;SDS011;38075;53.172;5.446;2022-08-03T04:20:22;11.90;;;4.60;;
52074;SDS011;38075;53.172;5.446;2022-08-03T04:22:51;16.38;;;4.70;;
52074;SDS011;38075;53.172;5.446;2022-08-03T04:25:18;11.15;;;4.70;;
52074;SDS011;38075;53.172;5.446;2022-08-03T04:27:47;8.90;;;3.97;;
52074;SDS011;38075;53.172;5.446;2022-08-03T04:30:16;13.10;;;4.78;;
52074;SDS011;38075;53.172;5.446;2022-08-03T04:32:43;11.65;;;5.00;;
52074;SDS011;38075;53.172;5.446;2022-08-03T04:35:14;14.30;;;3.95;;
52074;SDS011;38075;53.172;5.446;2022-08-03T04:37:42;11.73;;;4.50;;
52074;SDS011;38075;53.172;5.446;2022-08-03T04:40:21;10.32;;;4.50;;
52074;SDS011;38075;53.172;5.446;2022-08-03T04:42:52;11.07;;;4.60;;
52074;SDS011;38075;53.172;5.446;2022-08-03T04:45:19;10.65;;;4.18;;
52074;SDS011;38075;53.172;5.446;2022-08-03T04:47:46;12.90;;;4.25;;
52074;SDS011;38075;53.172;5.446;2022-08-03T04:50:13;10.63;;;4.63;;
52074;SDS011;38075;53.172;5.446;2022-08-03T04:52:39;13.63;;;4.70;;
52074;SDS011;38075;53.172;5.446;2022-08-03T04:55:05;12.60;;;5.50;;
52074;SDS011;38075;53.172;5.446;2022-08-03T04:57:31;13.07;;;4.93;;
52074;SDS011;38075;53.172;5.446;2022-08-03T04:59:57;11.38;;;4.43;;
52074;SDS011;38075;53.172;5.446;2022-08-03T05:02:22;10.65;;;4.50;;
52074;SDS011;38075;53.172;5.446;2022-08-03T05:04:48;10.10;;;4.43;;
52074;SDS011;38075;53.172;5.446;2022-08-03T05:07:14;11.10;;;4.10;;
52074;SDS011;38075;53.172;5.446;2022-08-03T05:09:41;9.52;;;4.13;;
52074;SDS011;38075;53.172;5.446;2022-08-03T05:12:07;9.32;;;4.28;;
52074;SDS011;38075;53.172;5.446;2022-08-03T05:14:33;11.70;;;4.80;;
52074;SDS011;38075;53.172;5.446;2022-08-03T05:17:01;9.60;;;4.30;;
52074;SDS011;38075;53.172;5.446;2022-08-03T05:19:27;12.40;;;4.35;;
52074;SDS011;38075;53.172;5.446;2022-08-03T05:21:53;9.07;;;4.25;;
52074;SDS011;38075;53.172;5.446;2022-08-03T05:24:19;9.98;;;4.55;;
52074;SDS011;38075;53.172;5.446;2022-08-03T05:26:44;9.85;;;4.07;;
52074;SDS011;38075;53.172;5.446;2022-08-03T05:29:10;11.68;;;4.18;;
52074;SDS011;38075;53.172;5.446;2022-08-03T05:31:35;11.65;;;3.80;;
52074;SDS011;38075;53.172;5.446;2022-08-03T05:34:01;12.45;;;5.40;;
52074;SDS011;38075;53.172;5.446;2022-08-03T05:36:27;12.23;;;4.18;;
52074;SDS011;38075;53.172;5.446;2022-08-03T05:38:52;10.05;;;3.80;;
52074;SDS011;38075;53.172;5.446;2022-08-03T05:41:18;9.68;;;4.10;;
52074;SDS011;38075;53.172;5.446;2022-08-03T05:43:46;11.43;;;4.22;;
52074;SDS011;38075;53.172;5.446;2022-08-03T05:46:12;9.38;;;3.88;;
52074;SDS011;38075;53.172;5.446;2022-08-03T05:48:37;10.43;;;3.95;;
52074;SDS011;38075;53.172;5.446;2022-08-03T05:51:03;9.45;;;3.70;;
52074;SDS011;38075;53.172;5.446;2022-08-03T05:53:34;10.38;;;3.20;;
52074;SDS011;38075;53.172;5.446;2022-08-03T05:55:59;8.63;;;3.45;;
52074;SDS011;38075;53.172;5.446;2022-08-03T05:58:25;11.50;;;3.42;;
52074;SDS011;38075;53.172;5.446;2022-08-03T06:00:51;8.18;;;2.88;;
52074;SDS011;38075;53.172;5.446;2022-08-03T06:03:17;8.07;;;3.15;;
52074;SDS011;38075;53.172;5.446;2022-08-03T06:05:42;8.52;;;3.42;;
52074;SDS011;38075;53.172;5.446;2022-08-03T06:08:08;10.00;;;3.25;;
52074;SDS011;38075;53.172;5.446;2022-08-03T06:10:33;10.80;;;4.00;;
52074;SDS011;38075;53.172;5.446;2022-08-03T06:12:59;9.10;;;3.50;;
52074;SDS011;38075;53.172;5.446;2022-08-03T06:15:25;9.73;;;3.00;;
52074;SDS011;38075;53.172;5.446;2022-08-03T06:17:50;10.02;;;3.20;;
52074;SDS011;38075;53.172;5.446;2022-08-03T06:20:17;8.10;;;2.70;;
52074;SDS011;38075;53.172;5.446;2022-08-03T06:22:43;9.73;;;3.10;;
52074;SDS011;38075;53.172;5.446;2022-08-03T06:25:09;9.45;;;3.15;;
52074;SDS011;38075;53.172;5.446;2022-08-03T06:27:35;8.88;;;2.67;;
52074;SDS011;38075;53.172;5.446;2022-08-03T06:30:04;9.27;;;3.03;;
52074;SDS011;38075;53.172;5.446;2022-08-03T06:32:32;8.70;;;3.13;;
52074;SDS011;38075;53.172;5.446;2022-08-03T06:34:58;9.90;;;3.15;;
52074;SDS011;38075;53.172;5.446;2022-08-03T06:37:24;9.57;;;3.08;;
52074;SDS011;38075;53.172;5.446;2022-08-03T06:39:51;10.13;;;3.10;;
52074;SDS011;38075;53.172;5.446;2022-08-03T06:42:18;10.25;;;3.22;;
52074;SDS011;38075;53.172;5.446;2022-08-03T06:44:43;7.60;;;3.10;;
52074;SDS011;38075;53.172;5.446;2022-08-03T06:47:11;10.45;;;3.60;;
52074;SDS011;38075;53.172;5.446;2022-08-03T06:49:38;10.10;;;3.45;;
52074;SDS011;38075;53.172;5.446;2022-08-03T06:52:05;10.38;;;3.15;;
52074;SDS011;38075;53.172;5.446;2022-08-03T06:54:31;13.73;;;3.38;;
52074;SDS011;38075;53.172;5.446;2022-08-03T06:56:56;14.02;;;4.18;;
52074;SDS011;38075;53.172;5.446;2022-08-03T06:59:22;14.68;;;4.10;;
52074;SDS011;38075;53.172;5.446;2022-08-03T07:01:47;9.50;;;3.33;;
52074;SDS011;38075;53.172;5.446;2022-08-03T07:04:13;12.52;;;3.88;;
52074;SDS011;38075;53.172;5.446;2022-08-03T07:06:38;10.27;;;3.63;;
52074;SDS011;38075;53.172;5.446;2022-08-03T07:09:04;9.43;;;3.47;;
52074;SDS011;38075;53.172;5.446;2022-08-03T07:11:30;11.02;;;4.18;;
52074;SDS011;38075;53.172;5.446;2022-08-03T07:13:55;9.95;;;3.47;;
52074;SDS011;38075;53.172;5.446;2022-08-03T07:16:21;12.07;;;4.10;;
52074;SDS011;38075;53.172;5.446;2022-08-03T07:18:47;11.55;;;4.13;;
52074;SDS011;38075;53.172;5.446;2022-08-03T07:21:12;11.95;;;4.03;;
52074;SDS011;38075;53.172;5.446;2022-08-03T07:23:40;10.85;;;3.72;;
52074;SDS011;38075;53.172;5.446;2022-08-03T07:26:05;11.57;;;3.95;;
52074;SDS011;38075;53.172;5.446;2022-08-03T07:28:31;11.55;;;4.50;;
52074;SDS011;38075;53.172;5.446;2022-08-03T07:30:57;10.82;;;3.70;;
52074;SDS011;38075;53.172;5.446;2022-08-03T07:33:23;11.77;;;4.30;;
52074;SDS011;38075;53.172;5.446;2022-08-03T07:35:49;11.68;;;3.95;;
52074;SDS011;38075;53.172;5.446;2022-08-03T07:38:15;11.23;;;4.15;;
52074;SDS011;38075;53.172;5.446;2022-08-03T07:40:40;10.93;;;4.70;;
52074;SDS011;38075;53.172;5.446;2022-08-03T07:43:06;9.73;;;4.25;;
52074;SDS011;38075;53.172;5.446;2022-08-03T07:45:32;8.27;;;3.90;;
52074;SDS011;38075;53.172;5.446;2022-08-03T07:47:57;12.32;;;4.88;;
52074;SDS011;38075;53.172;5.446;2022-08-03T07:50:23;11.48;;;3.88;;
52074;SDS011;38075;53.172;5.446;2022-08-03T07:52:49;11.05;;;3.95;;
52074;SDS011;38075;53.172;5.446;2022-08-03T07:55:21;13.05;;;4.75;;
52074;SDS011;38075;53.172;5.446;2022-08-03T07:58:04;11.48;;;3.90;;
52074;SDS011;38075;53.172;5.446;2022-08-03T08:00:36;11.43;;;4.15;;
52074;SDS011;38075;53.172;5.446;2022-08-03T08:03:03;10.55;;;4.30;;
52074;SDS011;38075;53.172;5.446;2022-08-03T08:05:29;14.48;;;5.97;;
52074;SDS011;38075;53.172;5.446;2022-08-03T08:07:55;9.23;;;4.07;;
52074;SDS011;38075;53.172;5.446;2022-08-03T08:10:21;13.13;;;4.47;;
52074;SDS011;38075;53.172;5.446;2022-08-03T08:12:47;10.73;;;4.45;;
52074;SDS011;38075;53.172;5.446;2022-08-03T08:15:13;8.20;;;4.03;;
52074;SDS011;38075;53.172;5.446;2022-08-03T08:17:43;11.07;;;4.22;;
52074;SDS011;38075;53.172;5.446;2022-08-03T08:20:17;11.80;;;4.18;;
52074;SDS011;38075;53.172;5.446;2022-08-03T08:22:45;15.30;;;4.53;;
52074;SDS011;38075;53.172;5.446;2022-08-03T08:25:11;10.05;;;4.28;;
52074;SDS011;38075;53.172;5.446;2022-08-03T08:27:40;13.63;;;4.40;;
52074;SDS011;38075;53.172;5.446;2022-08-03T08:30:11;11.85;;;4.03;;
52074;SDS011;38075;53.172;5.446;2022-08-03T08:32:37;10.35;;;3.80;;
52074;SDS011;38075;53.172;5.446;2022-08-03T08:35:03;10.60;;;4.30;;
52074;SDS011;38075;53.172;5.446;2022-08-03T08:37:30;11.35;;;4.28;;
52074;SDS011;38075;53.172;5.446;2022-08-03T08:39:56;11.10;;;4.60;;
52074;SDS011;38075;53.172;5.446;2022-08-03T08:42:22;11.40;;;4.60;;
52074;SDS011;38075;53.172;5.446;2022-08-03T08:44:48;10.43;;;4.40;;
52074;SDS011;38075;53.172;5.446;2022-08-03T08:47:14;11.15;;;4.10;;
52074;SDS011;38075;53.172;5.446;2022-08-03T08:49:41;11.80;;;3.88;;
52074;SDS011;38075;53.172;5.446;2022-08-03T08:52:07;9.73;;;4.13;;
52074;SDS011;38075;53.172;5.446;2022-08-03T08:54:33;15.00;;;4.90;;
52074;SDS011;38075;53.172;5.446;2022-08-03T08:57:03;15.30;;;5.05;;
52074;SDS011;38075;53.172;5.446;2022-08-03T08:59:32;11.68;;;4.88;;
52074;SDS011;38075;53.172;5.446;2022-08-03T09:01:58;15.02;;;4.40;;
52074;SDS011;38075;53.172;5.446;2022-08-03T09:04:24;13.68;;;4.65;;
52074;SDS011;38075;53.172;5.446;2022-08-03T09:06:52;12.40;;;4.07;;
52074;SDS011;38075;53.172;5.446;2022-08-03T09:09:17;13.93;;;4.78;;
52074;SDS011;38075;53.172;5.446;2022-08-03T09:11:43;13.32;;;4.43;;
52074;SDS011;38075;53.172;5.446;2022-08-03T09:14:10;13.73;;;4.97;;
52074;SDS011;38075;53.172;5.446;2022-08-03T09:16:35;14.25;;;5.03;;
52074;SDS011;38075;53.172;5.446;2022-08-03T09:19:11;13.02;;;4.13;;
52074;SDS011;38075;53.172;5.446;2022-08-03T09:21:38;10.70;;;4.22;;
52074;SDS011;38075;53.172;5.446;2022-08-03T09:24:04;12.02;;;4.32;;
52074;SDS011;38075;53.172;5.446;2022-08-03T09:26:31;10.27;;;4.00;;
52074;SDS011;38075;53.172;5.446;2022-08-03T09:29:13;15.02;;;5.43;;
52074;SDS011;38075;53.172;5.446;2022-08-03T09:34:11;12.98;;;5.18;;
52074;SDS011;38075;53.172;5.446;2022-08-03T09:39:06;13.65;;;5.20;;
52074;SDS011;38075;53.172;5.446;2022-08-03T09:41:46;11.20;;;4.05;;
52074;SDS011;38075;53.172;5.446;2022-08-03T09:44:13;14.15;;;4.75;;
52074;SDS011;38075;53.172;5.446;2022-08-03T09:46:49;15.30;;;4.85;;
52074;SDS011;38075;53.172;5.446;2022-08-03T09:49:16;10.48;;;4.85;;
52074;SDS011;38075;53.172;5.446;2022-08-03T09:51:42;13.02;;;4.53;;
52074;SDS011;38075;53.172;5.446;2022-08-03T09:54:09;12.55;;;4.45;;
52074;SDS011;38075;53.172;5.446;2022-08-03T09:59:08;13.50;;;4.82;;
52074;SDS011;38075;53.172;5.446;2022-08-03T10:01:34;13.60;;;4.93;;
52074;SDS011;38075;53.172;5.446;2022-08-03T10:04:01;15.10;;;4.93;;
52074;SDS011;38075;53.172;5.446;2022-08-03T10:06:27;13.75;;;5.13;;
52074;SDS011;38075;53.172;5.446;2022-08-03T10:11:31;15.50;;;5.22;;
52074;SDS011;38075;53.172;5.446;2022-08-03T10:14:00;14.85;;;6.28;;
52074;SDS011;38075;53.172;5.446;2022-08-03T10:16:29;14.20;;;4.97;;
52074;SDS011;38075;53.172;5.446;2022-08-03T10:18:58;13.52;;;4.85;;
52074;SDS011;38075;53.172;5.446;2022-08-03T10:21:23;10.85;;;4.45;;
52074;SDS011;38075;53.172;5.446;2022-08-03T10:23:50;11.60;;;4.80;;
52074;SDS011;38075;53.172;5.446;2022-08-03T10:26:18;11.07;;;4.78;;
52074;SDS011;38075;53.172;5.446;2022-08-03T10:28:49;12.48;;;4.35;;
52074;SDS011;38075;53.172;5.446;2022-08-03T10:31:17;9.05;;;4.10;;
52074;SDS011;38075;53.172;5.446;2022-08-03T10:33:49;13.35;;;5.15;;
52074;SDS011;38075;53.172;5.446;2022-08-03T10:36:16;12.65;;;4.25;;
52074;SDS011;38075;53.172;5.446;2022-08-03T10:38:43;11.82;;;4.50;;
52074;SDS011;38075;53.172;5.446;2022-08-03T10:41:12;12.82;;;4.65;;
52074;SDS011;38075;53.172;5.446;2022-08-03T10:43:46;12.57;;;4.47;;
52074;SDS011;38075;53.172;5.446;2022-08-03T10:46:17;12.98;;;4.50;;
52074;SDS011;38075;53.172;5.446;2022-08-03T10:48:45;9.88;;;4.60;;
52074;SDS011;38075;53.172;5.446;2022-08-03T10:51:13;12.85;;;4.90;;
52074;SDS011;38075;53.172;5.446;2022-08-03T10:53:43;11.70;;;4.13;;
52074;SDS011;38075;53.172;5.446;2022-08-03T11:02:09;12.35;;;5.45;;
52074;SDS011;38075;53.172;5.446;2022-08-03T11:04:35;13.40;;;4.18;;
52074;SDS011;38075;53.172;5.446;2022-08-03T11:09:53;12.82;;;4.45;;
52074;SDS011;38075;53.172;5.446;2022-08-03T11:14:47;11.73;;;3.80;;
52074;SDS011;38075;53.172;5.446;2022-08-03T11:17:13;11.77;;;4.65;;
52074;SDS011;38075;53.172;5.446;2022-08-03T11:19:42;10.02;;;4.00;;
52074;SDS011;38075;53.172;5.446;2022-08-03T11:22:09;11.93;;;4.70;;
52074;SDS011;38075;53.172;5.446;2022-08-03T11:29:52;11.55;;;4.13;;
52074;SDS011;38075;53.172;5.446;2022-08-03T11:35:22;10.40;;;3.95;;
52074;SDS011;38075;53.172;5.446;2022-08-03T11:40:40;11.85;;;4.15;;
52074;SDS011;38075;53.172;5.446;2022-08-03T11:48:26;12.43;;;4.25;;
52074;SDS011;38075;53.172;5.446;2022-08-03T11:51:02;8.70;;;3.45;;
52074;SDS011;38075;53.172;5.446;2022-08-03T11:53:29;11.52;;;3.78;;
52074;SDS011;38075;53.172;5.446;2022-08-03T11:55:57;8.95;;;3.38;;
52074;SDS011;38075;53.172;5.446;2022-08-03T11:58:24;9.90;;;3.65;;
52074;SDS011;38075;53.172;5.446;2022-08-03T12:00:50;10.25;;;3.78;;
52074;SDS011;38075;53.172;5.446;2022-08-03T12:03:17;10.27;;;3.60;;
52074;SDS011;38075;53.172;5.446;2022-08-03T12:08:14;9.18;;;4.32;;
52074;SDS011;38075;53.172;5.446;2022-08-03T12:10:49;12.43;;;3.75;;
52074;SDS011;38075;53.172;5.446;2022-08-03T12:13:15;9.43;;;3.72;;
52074;SDS011;38075;53.172;5.446;2022-08-03T12:15:42;12.45;;;3.75;;
52074;SDS011;38075;53.172;5.446;2022-08-03T12:18:15;8.52;;;3.40;;
52074;SDS011;38075;53.172;5.446;2022-08-03T12:20:42;8.40;;;3.58;;
52074;SDS011;38075;53.172;5.446;2022-08-03T12:23:09;6.30;;;2.88;;
52074;SDS011;38075;53.172;5.446;2022-08-03T12:25:35;8.10;;;3.05;;
52074;SDS011;38075;53.172;5.446;2022-08-03T12:28:07;7.75;;;3.13;;
52074;SDS011;38075;53.172;5.446;2022-08-03T12:30:35;7.90;;;3.38;;
52074;SDS011;38075;53.172;5.446;2022-08-03T12:33:53;8.80;;;3.38;;
52074;SDS011;38075;53.172;5.446;2022-08-03T12:36:07;11.02;;;3.33;;
52074;SDS011;38075;53.172;5.446;2022-08-03T12:38:35;8.38;;;3.42;;
52074;SDS011;38075;53.172;5.446;2022-08-03T12:41:07;10.27;;;3.60;;
52074;SDS011;38075;53.172;5.446;2022-08-03T12:43:48;11.80;;;4.35;;
52074;SDS011;38075;53.172;5.446;2022-08-03T12:46:15;8.57;;;3.38;;
52074;SDS011;38075;53.172;5.446;2022-08-03T12:51:22;9.82;;;3.35;;
52074;SDS011;38075;53.172;5.446;2022-08-03T12:53:51;7.65;;;3.30;;
52074;SDS011;38075;53.172;5.446;2022-08-03T12:56:18;8.02;;;3.60;;
52074;SDS011;38075;53.172;5.446;2022-08-03T12:58:44;9.98;;;3.65;;
52074;SDS011;38075;53.172;5.446;2022-08-03T13:01:11;10.57;;;3.75;;
52074;SDS011;38075;53.172;5.446;2022-08-03T13:03:40;7.50;;;3.53;;
52074;SDS011;38075;53.172;5.446;2022-08-03T13:06:13;12.68;;;4.18;;
52074;SDS011;38075;53.172;5.446;2022-08-03T13:08:46;14.05;;;4.40;;
52074;SDS011;38075;53.172;5.446;2022-08-03T13:11:22;11.32;;;3.97;;
52074;SDS011;38075;53.172;5.446;2022-08-03T13:13:50;10.55;;;4.00;;
52074;SDS011;38075;53.172;5.446;2022-08-03T13:16:16;11.00;;;4.18;;
52074;SDS011;38075;53.172;5.446;2022-08-03T13:18:42;9.35;;;3.67;;
52074;SDS011;38075;53.172;5.446;2022-08-03T13:21:10;11.18;;;4.75;;
52074;SDS011;38075;53.172;5.446;2022-08-03T13:23:37;11.40;;;4.03;;
52074;SDS011;38075;53.172;5.446;2022-08-03T13:26:03;8.73;;;3.60;;
52074;SDS011;38075;53.172;5.446;2022-08-03T13:28:28;9.45;;;3.50;;
52074;SDS011;38075;53.172;5.446;2022-08-03T13:30:54;9.50;;;3.80;;
52074;SDS011;38075;53.172;5.446;2022-08-03T13:33:20;11.02;;;3.88;;
52074;SDS011;38075;53.172;5.446;2022-08-03T13:35:45;12.32;;;3.80;;
52074;SDS011;38075;53.172;5.446;2022-08-03T13:38:11;9.45;;;3.67;;
52074;SDS011;38075;53.172;5.446;2022-08-03T13:40:40;13.00;;;4.00;;
52074;SDS011;38075;53.172;5.446;2022-08-03T13:43:05;9.07;;;3.70;;
52074;SDS011;38075;53.172;5.446;2022-08-03T13:45:31;8.57;;;3.35;;
52074;SDS011;38075;53.172;5.446;2022-08-03T13:47:56;9.63;;;3.22;;
52074;SDS011;38075;53.172;5.446;2022-08-03T13:50:22;11.23;;;3.67;;
52074;SDS011;38075;53.172;5.446;2022-08-03T13:52:47;10.63;;;3.70;;
52074;SDS011;38075;53.172;5.446;2022-08-03T13:55:13;9.98;;;3.90;;
52074;SDS011;38075;53.172;5.446;2022-08-03T13:57:39;10.10;;;3.78;;
52074;SDS011;38075;53.172;5.446;2022-08-03T14:00:04;10.90;;;3.60;;
52074;SDS011;38075;53.172;5.446;2022-08-03T14:02:31;8.75;;;3.72;;
52074;SDS011;38075;53.172;5.446;2022-08-03T14:04:56;8.30;;;3.35;;
52074;SDS011;38075;53.172;5.446;2022-08-03T14:07:22;13.80;;;3.83;;
52074;SDS011;38075;53.172;5.446;2022-08-03T14:09:47;10.23;;;3.65;;
52074;SDS011;38075;53.172;5.446;2022-08-03T14:12:13;11.30;;;4.40;;
52074;SDS011;38075;53.172;5.446;2022-08-03T14:14:39;8.63;;;3.25;;
52074;SDS011;38075;53.172;5.446;2022-08-03T14:17:04;16.45;;;4.32;;
52074;SDS011;38075;53.172;5.446;2022-08-03T14:19:30;12.80;;;3.67;;
52074;SDS011;38075;53.172;5.446;2022-08-03T14:21:56;9.32;;;3.80;;
52074;SDS011;38075;53.172;5.446;2022-08-03T14:24:22;11.95;;;3.60;;
52074;SDS011;38075;53.172;5.446;2022-08-03T14:26:47;11.88;;;3.97;;
52074;SDS011;38075;53.172;5.446;2022-08-03T14:29:13;13.38;;;4.43;;
52074;SDS011;38075;53.172;5.446;2022-08-03T14:31:39;8.23;;;3.72;;
52074;SDS011;38075;53.172;5.446;2022-08-03T14:34:04;8.63;;;3.50;;
52074;SDS011;38075;53.172;5.446;2022-08-03T14:36:30;8.57;;;3.83;;
52074;SDS011;38075;53.172;5.446;2022-08-03T14:38:55;11.68;;;4.00;;
52074;SDS011;38075;53.172;5.446;2022-08-03T14:41:21;12.05;;;4.22;;
52074;SDS011;38075;53.172;5.446;2022-08-03T14:43:47;8.70;;;2.85;;
52074;SDS011;38075;53.172;5.446;2022-08-03T14:46:12;10.88;;;3.53;;
52074;SDS011;38075;53.172;5.446;2022-08-03T14:48:38;9.50;;;3.20;;
52074;SDS011;38075;53.172;5.446;2022-08-03T14:51:04;7.72;;;3.08;;
52074;SDS011;38075;53.172;5.446;2022-08-03T14:53:30;8.55;;;3.33;;
52074;SDS011;38075;53.172;5.446;2022-08-03T14:55:55;10.43;;;3.75;;
52074;SDS011;38075;53.172;5.446;2022-08-03T14:58:22;8.95;;;3.50;;
52074;SDS011;38075;53.172;5.446;2022-08-03T15:00:51;13.00;;;4.10;;
52074;SDS011;38075;53.172;5.446;2022-08-03T15:03:17;11.73;;;3.45;;
52074;SDS011;38075;53.172;5.446;2022-08-03T15:05:46;8.80;;;3.25;;
52074;SDS011;38075;53.172;5.446;2022-08-03T15:08:13;8.95;;;3.30;;
52074;SDS011;38075;53.172;5.446;2022-08-03T15:10:38;8.73;;;3.28;;
52074;SDS011;38075;53.172;5.446;2022-08-03T15:13:04;12.73;;;3.33;;
52074;SDS011;38075;53.172;5.446;2022-08-03T15:15:29;8.80;;;3.20;;
52074;SDS011;38075;53.172;5.446;2022-08-03T15:17:55;8.93;;;3.40;;
52074;SDS011;38075;53.172;5.446;2022-08-03T15:20:21;7.97;;;3.70;;
52074;SDS011;38075;53.172;5.446;2022-08-03T15:22:47;10.02;;;3.13;;
52074;SDS011;38075;53.172;5.446;2022-08-03T15:25:13;13.02;;;3.63;;
52074;SDS011;38075;53.172;5.446;2022-08-03T15:27:38;9.75;;;3.42;;
52074;SDS011;38075;53.172;5.446;2022-08-03T15:30:04;12.70;;;3.58;;
52074;SDS011;38075;53.172;5.446;2022-08-03T15:32:31;8.23;;;3.30;;
52074;SDS011;38075;53.172;5.446;2022-08-03T15:34:57;9.95;;;3.53;;
52074;SDS011;38075;53.172;5.446;2022-08-03T15:37:24;9.70;;;3.25;;
52074;SDS011;38075;53.172;5.446;2022-08-03T15:39:50;8.30;;;3.20;;
52074;SDS011;38075;53.172;5.446;2022-08-03T15:42:16;10.55;;;3.60;;